PKMJ

Marshall Islands International Airport

Majuro Atoll, , Marshall Islands
PKMJ 210532Z 2106/2206 22009KT P6SM VCSH SCT015 BKN050 OVC110 TEMPO 2107/2111 3SM SHRA SCT012 BKN025 OVC050
Issued Valid From Valid To
Jun-21 @ 05:32 UTC
(5 hours ago)
Jun-21 @ 06:00 UTC
(4 hours ago)
Jun-22 @ 06:00 UTC
(in 20 hours)
Jun-21 @ 06:00 to Jun-22 @ 06:00
PKMJ 210532Z 2106/2206 22009KT P6SM VCSH SCT015 BKN050 OVC110
Wind Visibility Clouds
220° at 9 knots 10,000+ meters
  • Scattered at 1,500' AGL
  • Broken at 5,000' AGL
  • Overcast at 11,000' AGL
Temporary Jun-21 @ 07:00 to Jun-21 @ 11:00
TEMPO 2107/2111 3SM SHRA SCT012 BKN025 OVC050
Visibility Clouds Conditions
4,828 meters
  • Scattered at 1,200' AGL
  • Broken at 2,500' AGL
  • Overcast at 5,000' AGL
  • Rain
PKMJ 210532Z 2106/2206 22009KT P6SM VCSH SCT015 BKN050 OVC110 TEMPO 2107/2111 3SM SHRA SCT012 BKN025 OVC050
Issued Jun-21 @ 05:32 UTC
(5 hours ago)
Valid From Jun-21 @ 06:00 UTC
(4 hours ago)
Valid To Jun-22 @ 06:00 UTC
(in 20 hours)
Jun-21 @ 06:00 - Jun-22 @ 06:00
Wind Visibility
220° at 9 knots 10,000+ meters
Clouds
  • Scattered at 1,500' AGL
  • Broken at 5,000' AGL
  • Overcast at 11,000' AGL
Temporary Jun-21 @ 07:00 - Jun-21 @ 11:00
Clouds
  • Scattered at 1,200' AGL
  • Broken at 2,500' AGL
  • Overcast at 5,000' AGL
Conditions
  • Rain